Time;durP1;ratioP1;P1;durP2;ratioP2;P2;SDS_P1;SDS_P2;PMS_P1;PMS_P2;Temp;Humidity;BMP_temperature;BMP_pressure;BME280_temperature;BME280_humidity;BME280_pressure;Samples;Min_cycle;Max_cycle;Signal;HPM_P1;HPM_P2
2021/10/06 00:01:14;;;;;;;1.67;1.13;;;10.40;99.90;;;;;;4981027;28;20456;-79
2021/10/06 00:03:42;;;;;;;2.53;1.17;;;10.40;99.90;;;;;;4977870;28;20473;-80
2021/10/06 00:06:09;;;;;;;1.63;1.33;;;10.50;99.90;;;;;;4977355;28;20465;-79
2021/10/06 00:08:36;;;;;;;1.03;1.03;;;10.40;99.90;;;;;;4977270;28;20454;-79
2021/10/06 00:11:03;;;;;;;1.55;1.45;;;10.40;99.90;;;;;;4979150;28;20465;-79
2021/10/06 00:13:29;;;;;;;2.50;1.23;;;10.50;99.90;;;;;;4984543;28;20210;-79
2021/10/06 00:15:56;;;;;;;2.73;1.13;;;10.40;99.90;;;;;;5007015;28;20469;-78
2021/10/06 00:18:24;;;;;;;1.23;1.10;;;10.30;99.90;;;;;;5010727;28;20496;-80
2021/10/06 00:20:52;;;;;;;1.20;1.20;;;10.40;99.90;;;;;;5000377;28;20253;-79
2021/10/06 00:23:19;;;;;;;1.80;1.37;;;10.50;99.90;;;;;;5001331;28;20216;-80
2021/10/06 00:25:46;;;;;;;2.78;1.27;;;10.40;99.90;;;;;;4990573;28;20462;-78
2021/10/06 00:28:12;;;;;;;1.20;1.10;;;10.30;99.90;;;;;;4981070;28;20213;-80
2021/10/06 00:30:39;;;;;;;1.55;1.45;;;10.30;99.90;;;;;;4990433;28;20463;-79
2021/10/06 00:33:06;;;;;;;1.92;1.60;;;10.20;99.90;;;;;;5000789;28;20209;-79
2021/10/06 00:35:33;;;;;;;1.50;1.20;;;10.20;99.90;;;;;;5000964;28;20245;-79
2021/10/06 00:38:01;;;;;;;1.33;1.27;;;10.20;99.90;;;;;;5000494;28;20221;-80
2021/10/06 00:40:28;;;;;;;2.42;1.83;;;10.10;99.90;;;;;;4983171;28;20469;-79
2021/10/06 00:42:54;;;;;;;1.25;1.15;;;10.00;99.90;;;;;;4982514;28;20214;-79
2021/10/06 00:45:21;;;;;;;2.20;1.50;;;10.00;99.90;;;;;;4995581;28;20714;-79
2021/10/06 00:47:48;;;;;;;3.75;1.35;;;9.90;99.90;;;;;;5001094;28;20210;-79
2021/10/06 00:50:15;;;;;;;2.28;1.10;;;9.90;99.90;;;;;;5000549;28;20663;-80
2021/10/06 00:52:41;;;;;;;1.53;1.33;;;9.90;99.90;;;;;;5000420;28;20595;-80
2021/10/06 00:55:12;;;;;;;2.53;1.20;;;10.00;99.90;;;;;;4999484;28;20660;-80
2021/10/06 00:57:39;;;;;;;2.95;1.30;;;10.00;99.90;;;;;;4999659;28;20220;-80
2021/10/06 01:00:08;;;;;;;1.83;1.30;;;9.80;99.90;;;;;;4986435;28;20208;-79
2021/10/06 01:02:35;;;;;;;1.50;1.15;;;9.90;99.90;;;;;;4980018;28;20459;-79
2021/10/06 01:05:01;;;;;;;1.43;1.20;;;9.90;99.90;;;;;;4979972;28;20239;-79
2021/10/06 01:07:28;;;;;;;2.38;1.40;;;10.00;99.90;;;;;;4979987;28;20450;-78
2021/10/06 01:09:56;;;;;;;2.28;1.50;;;10.00;99.90;;;;;;4989940;28;20202;-80
2021/10/06 01:12:24;;;;;;;2.08;1.08;;;9.80;99.90;;;;;;4998760;28;20215;-79
2021/10/06 01:14:50;;;;;;;1.42;1.33;;;9.80;99.90;;;;;;4980224;28;20231;-79
2021/10/06 01:17:18;;;;;;;2.45;1.60;;;9.90;99.90;;;;;;4979338;28;20583;-79
2021/10/06 01:19:44;;;;;;;3.75;1.80;;;10.00;99.90;;;;;;4979996;28;20676;-80
2021/10/06 01:22:15;;;;;;;3.35;2.90;;;10.00;99.90;;;;;;4978522;28;20206;-79
2021/10/06 01:24:42;;;;;;;2.88;1.77;;;9.90;99.90;;;;;;5003996;28;20222;-79
2021/10/06 01:27:10;;;;;;;1.50;1.40;;;10.00;99.90;;;;;;5014527;28;20210;-79
2021/10/06 01:29:38;;;;;;;1.80;1.70;;;10.00;99.90;;;;;;4997850;28;20458;-78
2021/10/06 01:32:11;;;;;;;1.73;1.63;;;10.10;99.90;;;;;;4995314;28;20469;-80
2021/10/06 01:34:38;;;;;;;2.40;2.10;;;10.00;99.90;;;;;;5012871;28;20272;-79
2021/10/06 01:37:05;;;;;;;2.35;1.35;;;10.00;99.90;;;;;;5014576;28;20854;-79
2021/10/06 01:39:34;;;;;;;2.23;1.70;;;10.00;99.90;;;;;;4991329;28;20207;-79
2021/10/06 01:42:01;;;;;;;4.20;2.00;;;10.00;99.90;;;;;;4979071;28;20462;-78
2021/10/06 01:44:27;;;;;;;1.90;1.80;;;9.90;99.90;;;;;;4992409;28;20218;-79
2021/10/06 01:46:54;;;;;;;5.00;2.00;;;9.90;99.90;;;;;;4997488;28;20597;-79
2021/10/06 01:49:21;;;;;;;2.10;1.20;;;9.90;99.90;;;;;;4997745;28;20459;-79
2021/10/06 01:51:50;;;;;;;1.58;1.48;;;9.90;99.90;;;;;;4997860;28;20456;-79
2021/10/06 01:54:17;;;;;;;1.60;1.50;;;9.90;99.90;;;;;;4984959;28;20249;-80
2021/10/06 01:56:45;;;;;;;1.30;1.20;;;9.90;99.90;;;;;;4977864;28;20465;-79
2021/10/06 01:59:12;;;;;;;1.60;1.50;;;9.80;99.90;;;;;;4978063;28;20245;-79
2021/10/06 02:01:38;;;;;;;2.67;1.73;;;9.90;99.90;;;;;;4997625;28;20632;-80
2021/10/06 02:04:05;;;;;;;1.70;1.60;;;9.80;99.90;;;;;;4997302;28;20225;-79
2021/10/06 02:06:32;;;;;;;1.50;1.40;;;9.90;99.90;;;;;;4997952;28;20214;-79
2021/10/06 02:08:59;;;;;;;1.50;1.33;;;9.90;99.90;;;;;;4993406;28;20206;-79
2021/10/06 02:11:26;;;;;;;2.50;2.30;;;9.90;99.90;;;;;;4978210;28;20250;-79
2021/10/06 02:13:54;;;;;;;2.27;1.50;;;9.90;99.90;;;;;;4978537;28;20229;-79
2021/10/06 02:16:20;;;;;;;2.90;1.70;;;9.90;99.90;;;;;;4977867;28;20458;-79
2021/10/06 02:18:47;;;;;;;1.40;1.20;;;9.90;99.90;;;;;;4985788;28;20488;-79
2021/10/06 02:21:14;;;;;;;2.30;1.73;;;9.90;99.90;;;;;;4996806;28;20230;-79
2021/10/06 02:23:40;;;;;;;4.10;1.70;;;9.90;99.90;;;;;;4996342;28;20227;-79
2021/10/06 02:26:07;;;;;;;1.27;1.20;;;9.90;99.90;;;;;;4996427;28;20448;-79
2021/10/06 02:28:34;;;;;;;1.95;1.40;;;9.80;99.90;;;;;;4996106;28;20572;-79
2021/10/06 02:31:02;;;;;;;1.60;1.50;;;9.70;99.90;;;;;;4996416;28;20600;-79
2021/10/06 02:33:29;;;;;;;2.38;1.33;;;9.70;99.90;;;;;;4990292;28;20723;-78
2021/10/06 02:35:55;;;;;;;3.03;2.05;;;9.70;99.90;;;;;;4976508;28;20217;-79
2021/10/06 02:38:22;;;;;;;1.48;1.38;;;9.70;99.90;;;;;;4976506;28;20234;-80
2021/10/06 02:40:49;;;;;;;3.92;1.45;;;9.60;99.90;;;;;;4976888;28;20205;-80
2021/10/06 02:43:16;;;;;;;1.23;1.20;;;9.60;99.90;;;;;;4989155;28;20546;-79
2021/10/06 02:45:42;;;;;;;3.00;2.17;;;9.60;99.90;;;;;;4995332;28;20209;-77
2021/10/06 02:48:10;;;;;;;2.25;1.63;;;9.60;99.90;;;;;;4995691;28;20216;-79
2021/10/06 02:50:37;;;;;;;2.08;1.90;;;9.60;99.90;;;;;;4995831;28;20219;-79
2021/10/06 02:53:04;;;;;;;1.58;1.15;;;9.60;99.90;;;;;;4996075;28;20216;-79
2021/10/06 02:55:31;;;;;;;2.37;1.57;;;9.60;99.90;;;;;;4976623;28;20245;-80
2021/10/06 02:57:57;;;;;;;2.50;1.73;;;9.60;99.90;;;;;;4976569;28;21037;-79
2021/10/06 03:00:24;;;;;;;1.95;1.55;;;9.60;99.90;;;;;;4995305;28;20465;-79
2021/10/06 03:02:51;;;;;;;3.13;1.50;;;9.60;99.90;;;;;;4996387;28;20555;-79
2021/10/06 03:05:19;;;;;;;2.83;1.73;;;9.60;99.90;;;;;;4994889;28;20224;-79
2021/10/06 03:07:46;;;;;;;1.75;1.65;;;9.50;99.90;;;;;;4996340;28;20212;-79
2021/10/06 03:10:13;;;;;;;4.23;1.60;;;9.60;99.90;;;;;;4995796;28;20233;-79
2021/10/06 03:12:41;;;;;;;2.28;1.80;;;9.60;99.90;;;;;;4995969;28;20453;-79
2021/10/06 03:15:09;;;;;;;1.90;1.80;;;9.60;99.90;;;;;;4995463;28;20308;-80
2021/10/06 03:17:36;;;;;;;4.40;2.45;;;9.60;99.90;;;;;;4995751;28;20231;-79
2021/10/06 03:20:04;;;;;;;1.85;1.73;;;9.60;99.90;;;;;;4995362;28;20225;-78
2021/10/06 03:22:32;;;;;;;2.13;1.92;;;9.70;99.90;;;;;;4995304;28;20668;-79
2021/10/06 03:24:59;;;;;;;2.30;2.10;;;9.70;99.90;;;;;;4994419;28;20241;-79
2021/10/06 03:27:26;;;;;;;3.95;2.40;;;9.60;99.90;;;;;;4995252;28;20214;-79
2021/10/06 03:29:52;;;;;;;2.05;1.95;;;9.60;99.90;;;;;;4995595;28;20214;-79
2021/10/06 03:32:19;;;;;;;2.08;1.80;;;9.60;99.90;;;;;;4995311;28;20234;-78
2021/10/06 03:34:46;;;;;;;3.60;2.60;;;9.60;99.90;;;;;;4995251;28;20224;-79
2021/10/06 03:37:13;;;;;;;3.92;2.25;;;9.60;99.90;;;;;;4995196;28;20219;-79
2021/10/06 03:39:41;;;;;;;2.85;2.30;;;9.60;99.90;;;;;;4995198;28;20236;-79
2021/10/06 03:42:08;;;;;;;5.07;2.47;;;9.70;99.90;;;;;;4994580;28;20205;-78
2021/10/06 03:44:34;;;;;;;2.00;1.90;;;9.70;99.90;;;;;;4985268;28;20313;-79
2021/10/06 03:47:01;;;;;;;1.60;1.50;;;9.70;99.90;;;;;;4996753;28;20207;-79
2021/10/06 03:49:28;;;;;;;2.25;1.70;;;9.50;99.90;;;;;;5002905;28;20714;-79
2021/10/06 03:51:54;;;;;;;1.60;1.50;;;9.40;99.90;;;;;;4999202;28;20204;-79
2021/10/06 03:54:21;;;;;;;1.92;1.73;;;9.40;99.90;;;;;;4999034;28;20228;-80
2021/10/06 03:56:49;;;;;;;2.20;2.00;;;9.40;99.90;;;;;;5001525;28;20209;-79
2021/10/06 03:59:16;;;;;;;2.25;2.13;;;9.40;99.90;;;;;;4993561;28;20221;-80
2021/10/06 04:01:43;;;;;;;1.52;1.40;;;9.20;99.90;;;;;;4996989;28;20209;-79
2021/10/06 04:04:09;;;;;;;0.90;0.90;;;9.30;99.90;;;;;;5002759;28;20217;-79
2021/10/06 04:06:36;;;;;;;1.58;1.30;;;9.30;99.90;;;;;;5002399;28;20222;-79
2021/10/06 04:09:03;;;;;;;1.25;1.17;;;9.20;99.90;;;;;;4995738;28;20482;-79
2021/10/06 04:11:31;;;;;;;1.40;1.30;;;9.20;99.90;;;;;;4982330;28;20574;-79
2021/10/06 04:13:59;;;;;;;1.00;0.88;;;9.20;99.90;;;;;;4986651;28;20216;-79
2021/10/06 04:16:26;;;;;;;1.45;1.35;;;9.20;99.90;;;;;;5000697;28;20203;-79
2021/10/06 04:18:53;;;;;;;2.03;1.67;;;9.10;99.90;;;;;;4996906;28;20216;-79
2021/10/06 04:21:20;;;;;;;2.58;1.30;;;9.00;99.90;;;;;;4982478;28;20224;-80
2021/10/06 04:23:47;;;;;;;8.88;3.25;;;9.00;99.90;;;;;;4982655;28;20354;-79
2021/10/06 04:26:14;;;;;;;1.63;1.23;;;9.10;99.90;;;;;;4981548;28;20208;-79
2021/10/06 04:28:41;;;;;;;1.90;1.60;;;9.00;99.90;;;;;;4986180;28;20211;-78
2021/10/06 04:31:09;;;;;;;1.80;1.70;;;9.10;99.90;;;;;;4986875;28;20208;-78
2021/10/06 04:33:35;;;;;;;1.33;1.30;;;9.10;99.90;;;;;;4993373;28;20225;-78
2021/10/06 04:36:02;;;;;;;1.42;1.35;;;9.00;99.90;;;;;;5003169;28;20219;-80
2021/10/06 04:38:29;;;;;;;2.63;2.13;;;9.00;99.90;;;;;;4995399;28;20691;-80
2021/10/06 04:40:56;;;;;;;1.85;1.25;;;9.10;99.90;;;;;;4982232;28;20279;-79
2021/10/06 04:43:23;;;;;;;1.95;1.42;;;9.10;99.90;;;;;;4986069;28;20213;-79
2021/10/06 04:45:49;;;;;;;1.73;1.45;;;9.10;99.90;;;;;;5001868;28;20217;-79
2021/10/06 04:48:17;;;;;;;1.95;1.85;;;9.10;99.90;;;;;;4997190;28;20204;-79
2021/10/06 04:50:44;;;;;;;1.40;1.35;;;9.20;99.90;;;;;;4981569;28;20219;-80
2021/10/06 04:53:11;;;;;;;2.58;1.40;;;9.20;99.90;;;;;;4983940;28;20221;-79
2021/10/06 04:55:38;;;;;;;2.83;1.20;;;9.30;99.90;;;;;;5003422;28;20241;-77
2021/10/06 04:58:05;;;;;;;1.77;1.45;;;9.20;99.90;;;;;;5001956;28;20273;-79
2021/10/06 05:00:32;;;;;;;1.45;1.35;;;9.20;99.90;;;;;;5000755;28;20213;-79
2021/10/06 05:03:06;;;;;;;2.58;1.70;;;9.30;99.90;;;;;;5000514;28;20205;-79
2021/10/06 05:05:34;;;;;;;2.25;1.85;;;9.30;99.90;;;;;;4980866;28;20225;-80
2021/10/06 05:08:01;;;;;;;1.65;1.55;;;9.30;99.90;;;;;;4981906;28;20578;-79
2021/10/06 05:10:28;;;;;;;1.60;1.52;;;9.30;99.90;;;;;;5000417;28;20635;-79
2021/10/06 05:12:55;;;;;;;1.75;1.65;;;9.40;99.90;;;;;;4999226;28;20213;-79
2021/10/06 05:15:21;;;;;;;1.83;1.73;;;9.30;99.90;;;;;;4999913;28;20241;-79
2021/10/06 05:17:48;;;;;;;1.43;1.33;;;9.30;99.90;;;;;;5000497;28;20679;-79
2021/10/06 05:20:15;;;;;;;2.42;1.95;;;9.40;99.90;;;;;;4981059;28;20834;-79
2021/10/06 05:22:43;;;;;;;4.22;1.60;;;9.40;99.90;;;;;;4980597;28;20215;-79
2021/10/06 05:25:10;;;;;;;3.78;1.75;;;9.40;99.90;;;;;;4999442;28;20227;-79
2021/10/06 05:27:37;;;;;;;1.60;1.50;;;9.50;99.90;;;;;;5000797;28;20239;-79
2021/10/06 05:30:06;;;;;;;1.38;1.27;;;9.50;99.90;;;;;;5000065;28;20203;-80
2021/10/06 05:32:33;;;;;;;1.55;1.45;;;9.40;99.90;;;;;;4999778;28;20590;-79
2021/10/06 05:35:00;;;;;;;1.52;1.42;;;9.40;99.90;;;;;;4988032;28;20221;-79
2021/10/06 05:37:28;;;;;;;2.78;1.20;;;9.30;99.90;;;;;;4995766;28;20581;-79
2021/10/06 05:39:56;;;;;;;1.58;1.10;;;9.40;99.90;;;;;;4998841;28;20642;-78
2021/10/06 05:42:23;;;;;;;2.45;1.00;;;9.60;99.90;;;;;;4984206;28;20595;-81
2021/10/06 05:44:50;;;;;;;1.40;1.30;;;9.60;99.90;;;;;;4981540;28;20232;-82
2021/10/06 05:47:16;;;;;;;5.35;1.30;;;9.60;99.90;;;;;;5002951;28;20220;-83
2021/10/06 05:49:44;;;;;;;1.70;1.60;;;9.60;99.90;;;;;;5003007;28;20209;-82
2021/10/06 05:52:10;;;;;;;1.52;1.45;;;9.60;99.90;;;;;;5001942;28;20235;-81
2021/10/06 05:54:37;;;;;;;1.80;1.37;;;9.60;99.90;;;;;;5001029;28;20248;-82
2021/10/06 05:57:06;;;;;;;1.33;1.23;;;9.70;99.90;;;;;;5000440;28;20462;-82
2021/10/06 05:59:34;;;;;;;3.75;2.03;;;9.80;99.90;;;;;;5000642;28;20225;-82
2021/10/06 06:02:01;;;;;;;1.33;1.23;;;9.80;99.90;;;;;;4981607;28;20209;-81
2021/10/06 06:04:28;;;;;;;6.80;2.08;;;9.70;99.90;;;;;;4993344;28;20482;-81
2021/10/06 06:06:54;;;;;;;1.30;1.20;;;9.80;99.90;;;;;;4997317;28;20211;-81
2021/10/06 06:09:22;;;;;;;2.72;2.00;;;9.80;99.90;;;;;;4987166;28;20206;-82
2021/10/06 06:11:49;;;;;;;2.70;2.10;;;9.70;99.90;;;;;;4985137;28;20203;-82
2021/10/06 06:14:17;;;;;;;2.20;1.92;;;9.80;99.90;;;;;;4988745;28;20224;-82
2021/10/06 06:16:45;;;;;;;2.58;1.48;;;9.90;99.90;;;;;;4988183;28;20202;-82
2021/10/06 06:19:12;;;;;;;1.80;1.70;;;9.90;99.90;;;;;;4987703;28;20221;-82
2021/10/06 06:21:40;;;;;;;1.65;1.02;;;9.80;99.90;;;;;;4989675;28;20202;-82
2021/10/06 06:24:07;;;;;;;1.70;1.52;;;9.70;99.90;;;;;;4988872;28;20269;-82
2021/10/06 06:26:34;;;;;;;3.33;2.13;;;9.60;99.90;;;;;;4987292;28;20214;-82
2021/10/06 06:29:00;;;;;;;3.90;3.55;;;9.60;99.90;;;;;;4987795;28;20198;-82
2021/10/06 06:31:28;;;;;;;1.88;1.77;;;9.60;99.90;;;;;;4997154;28;20659;-82
2021/10/06 06:33:55;;;;;;;1.40;1.30;;;9.70;99.90;;;;;;4996160;28;20229;-82
2021/10/06 06:36:23;;;;;;;3.55;3.15;;;9.70;99.90;;;;;;4985899;28;20210;-82
2021/10/06 06:38:49;;;;;;;2.20;1.90;;;9.70;99.90;;;;;;4997318;28;20255;-81
2021/10/06 06:41:16;;;;;;;4.30;1.75;;;9.70;99.90;;;;;;4989374;28;20214;-82
2021/10/06 06:43:43;;;;;;;1.75;1.65;;;9.60;99.90;;;;;;4989152;28;20228;-82
2021/10/06 06:46:10;;;;;;;1.48;1.38;;;9.60;99.90;;;;;;4989407;28;20201;-82
2021/10/06 06:48:38;;;;;;;2.80;1.70;;;9.50;99.90;;;;;;4985934;28;20209;-82
2021/10/06 06:51:05;;;;;;;4.22;3.00;;;9.60;99.90;;;;;;4987786;28;20236;-82
2021/10/06 06:53:32;;;;;;;1.27;1.17;;;9.60;99.90;;;;;;4996880;28;20587;-82
2021/10/06 06:55:59;;;;;;;2.50;1.80;;;9.50;99.90;;;;;;5000717;28;20204;-82
2021/10/06 06:58:27;;;;;;;2.53;1.50;;;9.60;99.90;;;;;;4984012;28;20449;-83
2021/10/06 07:00:54;;;;;;;3.28;1.70;;;9.80;99.90;;;;;;4981371;28;20493;-85
2021/10/06 07:03:21;;;;;;;2.45;1.13;;;9.80;99.90;;;;;;4996294;28;20662;-84
2021/10/06 07:05:49;;;;;;;2.45;1.60;;;9.80;99.90;;;;;;5000460;28;20219;-83
2021/10/06 07:08:18;;;;;;;2.40;1.40;;;9.90;99.90;;;;;;4995034;28;20206;-83
2021/10/06 07:10:44;;;;;;;1.30;1.20;;;9.80;99.90;;;;;;4986549;28;20242;-84
2021/10/06 07:13:11;;;;;;;1.35;1.25;;;9.80;99.90;;;;;;4994974;28;20205;-84
2021/10/06 07:15:38;;;;;;;1.20;1.10;;;9.80;99.90;;;;;;5002267;28;20237;-83
2021/10/06 07:18:04;;;;;;;1.70;1.40;;;9.90;99.90;;;;;;5012675;28;20204;-84
2021/10/06 07:20:31;;;;;;;1.88;1.05;;;9.90;99.90;;;;;;4999500;28;20298;-83
2021/10/06 07:22:59;;;;;;;2.20;1.20;;;9.90;99.90;;;;;;4996232;28;20224;-79
2021/10/06 07:25:26;;;;;;;1.17;0.75;;;10.10;99.90;;;;;;4988150;28;20228;-80
2021/10/06 07:27:53;;;;;;;1.43;1.30;;;10.10;99.90;;;;;;4980194;28;20676;-80
2021/10/06 07:30:20;;;;;;;3.33;1.73;;;10.30;99.90;;;;;;4993886;28;20951;-80
2021/10/06 07:32:47;;;;;;;1.90;1.23;;;10.60;99.90;;;;;;4978996;28;20982;-79
2021/10/06 07:35:14;;;;;;;1.47;1.37;;;10.80;99.90;;;;;;4978646;28;20474;-79
2021/10/06 07:37:41;;;;;;;1.97;1.07;;;10.90;99.90;;;;;;4978282;28;20455;-81
2021/10/06 07:40:11;;;;;;;2.20;2.03;;;11.00;99.90;;;;;;4978810;28;20502;-79
2021/10/06 07:42:38;;;;;;;2.87;1.20;;;11.10;99.90;;;;;;4979431;28;20219;-79
2021/10/06 07:45:05;;;;;;;1.50;1.17;;;11.10;99.90;;;;;;4977950;28;20492;-79
2021/10/06 07:47:32;;;;;;;2.27;1.10;;;11.10;99.90;;;;;;4977192;28;20454;-79
2021/10/06 07:49:59;;;;;;;2.13;1.13;;;11.20;99.90;;;;;;4977824;28;20466;-80
2021/10/06 07:52:26;;;;;;;3.60;1.23;;;11.30;99.90;;;;;;4997144;28;20525;-78
2021/10/06 07:54:53;;;;;;;2.40;1.37;;;11.30;99.90;;;;;;4997143;28;20488;-79
2021/10/06 07:57:21;;;;;;;2.20;1.10;;;11.40;99.90;;;;;;4995143;28;20904;-79
2021/10/06 07:59:48;;;;;;;1.47;1.00;;;11.50;99.90;;;;;;4996975;28;20496;-79
2021/10/06 08:02:15;;;;;;;2.50;1.13;;;11.50;99.90;;;;;;4991078;28;20458;-79
2021/10/06 08:04:41;;;;;;;1.70;1.27;;;11.70;99.90;;;;;;4997201;28;20496;-79
2021/10/06 08:07:08;;;;;;;1.40;1.30;;;11.90;99.90;;;;;;4996399;28;20821;-79
2021/10/06 08:09:35;;;;;;;2.40;2.20;;;12.00;99.90;;;;;;4995366;28;20453;-79
2021/10/06 08:12:02;;;;;;;4.40;1.67;;;12.10;99.90;;;;;;4978254;28;20454;-79
2021/10/06 08:14:30;;;;;;;1.07;0.87;;;12.20;99.90;;;;;;4976735;28;20471;-79
2021/10/06 08:16:56;;;;;;;1.20;1.10;;;12.10;99.90;;;;;;4990366;28;20489;-79
2021/10/06 08:19:23;;;;;;;2.40;1.37;;;12.10;99.90;;;;;;4995301;28;20490;-79
2021/10/06 08:21:50;;;;;;;2.93;0.93;;;12.20;99.90;;;;;;4994678;28;20454;-78
2021/10/06 08:24:17;;;;;;;2.13;1.37;;;12.30;99.90;;;;;;4997549;28;20566;-79
2021/10/06 08:26:44;;;;;;;1.93;1.17;;;12.40;99.90;;;;;;4997554;28;20450;-79
2021/10/06 08:29:11;;;;;;;2.30;1.77;;;12.50;99.90;;;;;;4984553;28;20467;-79
2021/10/06 08:31:39;;;;;;;2.43;1.20;;;12.70;99.90;;;;;;4979770;28;20455;-79
2021/10/06 08:34:06;;;;;;;2.50;1.20;;;13.00;99.90;;;;;;4981948;28;20476;-79
2021/10/06 08:36:33;;;;;;;1.70;1.60;;;13.30;99.90;;;;;;4981541;28;20531;-80
2021/10/06 08:39:00;;;;;;;1.70;0.97;;;13.30;99.90;;;;;;4993323;28;20979;-78
2021/10/06 08:41:27;;;;;;;1.40;0.87;;;13.20;99.90;;;;;;5000976;28;20474;-78
2021/10/06 08:43:55;;;;;;;1.87;1.00;;;13.20;99.90;;;;;;4989738;28;21196;-79
2021/10/06 08:46:24;;;;;;;2.43;1.00;;;13.10;99.90;;;;;;4981756;28;20452;-79
2021/10/06 08:48:53;;;;;;;1.13;1.03;;;13.00;99.90;;;;;;4990737;28;20461;-80
2021/10/06 08:51:20;;;;;;;1.30;1.20;;;12.80;99.90;;;;;;4986851;28;20448;-79
2021/10/06 08:53:47;;;;;;;0.97;0.97;;;12.70;99.90;;;;;;4989953;28;20485;-78
2021/10/06 08:56:14;;;;;;;1.13;1.00;;;12.50;99.90;;;;;;4996548;28;20438;-78
2021/10/06 08:58:40;;;;;;;5.73;1.10;;;12.50;99.90;;;;;;4994394;28;20462;-81
2021/10/06 09:01:07;;;;;;;1.73;1.23;;;12.40;99.90;;;;;;4981641;28;20498;-80
2021/10/06 09:03:36;;;;;;;1.13;1.03;;;12.50;99.90;;;;;;4998501;28;20999;-80
2021/10/06 09:06:06;;;;;;;1.90;1.80;;;12.40;99.90;;;;;;4985455;28;20482;-80
2021/10/06 09:08:34;;;;;;;2.20;1.70;;;12.50;99.90;;;;;;4981403;28;20513;-81
2021/10/06 09:11:02;;;;;;;1.33;0.93;;;12.60;99.90;;;;;;4994589;28;20447;-81
2021/10/06 09:13:30;;;;;;;3.17;2.07;;;12.80;99.90;;;;;;4999661;28;20817;-81
2021/10/06 09:15:58;;;;;;;2.30;0.90;;;12.90;99.90;;;;;;4979428;28;20452;-80
2021/10/06 09:18:27;;;;;;;0.97;0.87;;;12.90;99.90;;;;;;4980076;28;20459;-81
2021/10/06 09:20:57;;;;;;;2.10;0.90;;;12.90;99.90;;;;;;4999229;28;20490;-81
2021/10/06 09:23:26;;;;;;;2.30;0.90;;;12.90;99.90;;;;;;5001391;28;20457;-80
2021/10/06 09:25:54;;;;;;;2.87;1.20;;;13.00;99.90;;;;;;4998185;28;20462;-81
2021/10/06 09:28:27;;;;;;;1.97;0.87;;;12.90;99.90;;;;;;4981634;28;20460;-83
2021/10/06 09:30:56;;;;;;;2.27;1.33;;;12.90;99.90;;;;;;4981095;28;20961;-82
2021/10/06 09:33:24;;;;;;;1.30;0.80;;;13.00;99.90;;;;;;4981938;28;20964;-81
2021/10/06 09:36:08;;;;;;;1.73;1.57;;;13.20;99.90;;;;;;4981554;28;20455;-82
2021/10/06 09:38:50;;;;;;;1.67;0.80;;;13.30;99.90;;;;;;4994963;28;20461;-81
2021/10/06 09:41:37;;;;;;;1.87;0.97;;;13.40;99.90;;;;;;4999876;28;21015;-81
2021/10/06 09:44:08;;;;;;;2.57;1.23;;;13.50;99.90;;;;;;4980701;28;20480;-82
2021/10/06 09:46:45;;;;;;;1.20;0.93;;;13.60;99.90;;;;;;4980772;28;20918;-83
2021/10/06 09:49:23;;;;;;;2.10;1.50;;;13.80;99.90;;;;;;4991182;28;20454;-80
2021/10/06 09:51:51;;;;;;;2.00;1.13;;;14.00;99.90;;;;;;5003721;28;20447;-81
2021/10/06 09:54:20;;;;;;;2.63;0.97;;;13.90;99.90;;;;;;5002743;28;20566;-80
2021/10/06 09:56:48;;;;;;;1.07;0.97;;;14.00;98.90;;;;;;4997858;28;20462;-82
2021/10/06 09:59:16;;;;;;;1.40;1.30;;;14.20;98.60;;;;;;4985414;28;20462;-83
2021/10/06 10:01:44;;;;;;;1.23;0.80;;;14.00;98.90;;;;;;4999608;28;20497;-82
2021/10/06 10:04:12;;;;;;;1.87;0.80;;;14.00;99.00;;;;;;4986181;28;20476;-85
2021/10/06 10:06:43;;;;;;;1.10;1.00;;;14.10;98.80;;;;;;4997887;28;20463;-87
2021/10/06 10:09:13;;;;;;;0.80;0.80;;;14.20;98.60;;;;;;4995023;28;20461;-81
2021/10/06 10:11:42;;;;;;;1.37;0.80;;;14.30;98.80;;;;;;4986003;28;20462;-85
2021/10/06 10:14:09;;;;;;;3.23;0.70;;;14.30;98.50;;;;;;4988363;28;20475;-84
2021/10/06 10:16:38;;;;;;;0.70;0.70;;;14.30;98.20;;;;;;4989877;28;20460;-84
2021/10/06 10:19:08;;;;;;;1.53;0.93;;;14.00;97.90;;;;;;4994580;28;20454;-82
2021/10/06 10:21:37;;;;;;;1.40;0.90;;;14.00;98.30;;;;;;4988641;28;20498;-85
2021/10/06 10:24:09;;;;;;;1.00;0.67;;;14.00;98.90;;;;;;4999794;28;20564;-83
2021/10/06 10:26:36;;;;;;;1.30;0.90;;;13.90;99.00;;;;;;5006882;28;20452;-85
2021/10/06 10:29:47;;;;;;;1.10;1.03;;;13.80;99.50;;;;;;5002050;28;20462;-85
2021/10/06 10:32:16;;;;;;;3.83;1.00;;;13.80;99.50;;;;;;4988662;28;20494;-85
2021/10/06 10:35:04;;;;;;;1.80;0.97;;;14.00;99.50;;;;;;4999389;28;20475;-85
2021/10/06 10:38:05;;;;;;;1.23;0.80;;;13.90;99.80;;;;;;5000153;28;20465;-85
2021/10/06 10:40:40;;;;;;;1.17;0.87;;;13.90;99.40;;;;;;4939796;29;20488;-84
2021/10/06 10:43:08;;;;;;;1.53;0.90;;;14.10;99.90;;;;;;4938807;29;20903;-84
2021/10/06 10:45:43;;;;;;;2.07;1.00;;;14.20;99.90;;;;;;4971617;28;21003;-83
2021/10/06 10:48:11;;;;;;;0.77;0.77;;;14.00;99.90;;;;;;5001149;28;20462;-84
2021/10/06 10:50:40;;;;;;;1.37;1.30;;;13.90;99.90;;;;;;5001880;28;20439;-85
2021/10/06 10:53:08;;;;;;;0.70;0.70;;;13.90;99.90;;;;;;5002289;28;20450;-83
2021/10/06 10:55:46;;;;;;;0.70;0.67;;;14.00;99.90;;;;;;5009658;28;20477;-85
2021/10/06 10:58:29;;;;;;;4.90;1.70;;;14.00;99.90;;;;;;4998207;28;20455;-86
2021/10/06 11:00:58;;;;;;;0.90;0.90;;;14.00;99.90;;;;;;4996347;28;20485;-82
2021/10/06 11:03:25;;;;;;;1.33;1.00;;;14.20;99.90;;;;;;4992699;28;20459;-83
2021/10/06 11:05:53;;;;;;;2.37;0.90;;;14.40;99.50;;;;;;4991920;28;20481;-85
2021/10/06 11:08:28;;;;;;;2.10;0.70;;;14.70;98.90;;;;;;4997208;28;20458;-85
2021/10/06 11:11:28;;;;;;;2.10;0.90;;;15.00;98.40;;;;;;4989380;28;20455;-84
2021/10/06 11:13:55;;;;;;;0.97;0.80;;;15.30;97.60;;;;;;4999889;28;20483;-84
2021/10/06 11:17:03;;;;;;;1.63;0.67;;;15.20;97.40;;;;;;5006879;28;20461;-83
2021/10/06 11:19:41;;;;;;;4.80;0.87;;;15.10;96.40;;;;;;5003455;28;20513;-85
2021/10/06 11:22:41;;;;;;;1.80;0.80;;;15.00;97.10;;;;;;5001142;28;20505;-85
2021/10/06 11:25:09;;;;;;;0.70;0.70;;;15.40;97.10;;;;;;5001126;28;20540;-85
2021/10/06 11:27:45;;;;;;;2.30;0.70;;;15.40;95.20;;;;;;4987134;28;20472;-86
2021/10/06 11:30:14;;;;;;;0.70;0.70;;;15.50;95.70;;;;;;5001951;28;20462;-84
2021/10/06 11:32:50;;;;;;;1.10;0.67;;;15.90;95.30;;;;;;4996013;28;20466;-85
2021/10/06 11:35:18;;;;;;;0.70;0.70;;;16.10;94.30;;;;;;5002510;28;20475;-85
2021/10/06 11:37:44;;;;;;;2.03;0.83;;;16.10;94.70;;;;;;5002691;28;20447;-81
2021/10/06 11:40:13;;;;;;;5.30;1.27;;;16.30;93.50;;;;;;4997932;28;20511;-85
2021/10/06 11:42:41;;;;;;;1.13;0.90;;;16.80;93.00;;;;;;4999586;28;20445;-85
2021/10/06 11:45:17;;;;;;;1.53;0.63;;;17.40;93.00;;;;;;4985882;28;20509;-83
2021/10/06 11:47:44;;;;;;;2.33;0.90;;;18.00;91.30;;;;;;4995946;28;20450;-85
2021/10/06 11:50:12;;;;;;;1.17;1.07;;;18.60;91.00;;;;;;4995982;28;20443;-84
2021/10/06 11:52:39;;;;;;;1.70;0.60;;;19.20;90.00;;;;;;4995053;28;20467;-85
2021/10/06 11:55:08;;;;;;;3.43;0.63;;;19.60;88.10;;;;;;4993219;28;20485;-84
2021/10/06 11:57:34;;;;;;;1.10;0.70;;;19.70;85.70;;;;;;4993568;28;20504;-86
2021/10/06 12:00:01;;;;;;;1.40;1.30;;;19.70;85.00;;;;;;4997860;28;20462;-82
2021/10/06 12:02:28;;;;;;;5.73;0.93;;;19.80;83.90;;;;;;5004626;28;20454;-84
2021/10/06 12:04:57;;;;;;;1.43;0.67;;;19.60;81.00;;;;;;5003658;28;20472;-86
2021/10/06 12:07:30;;;;;;;1.03;0.70;;;19.30;82.40;;;;;;5007543;28;20450;-85
2021/10/06 12:10:01;;;;;;;1.50;0.77;;;19.30;85.90;;;;;;5007414;28;20458;-85
2021/10/06 12:12:31;;;;;;;1.27;0.80;;;19.00;85.50;;;;;;5002872;28;20978;-84
2021/10/06 12:15:00;;;;;;;0.77;0.50;;;18.80;88.40;;;;;;5000455;28;20501;-84
2021/10/06 12:17:28;;;;;;;3.93;0.90;;;19.00;86.60;;;;;;4999255;28;20470;-85
2021/10/06 12:19:57;;;;;;;2.67;0.70;;;18.20;87.30;;;;;;5003021;28;20467;-84
2021/10/06 12:22:31;;;;;;;2.10;1.10;;;17.30;91.50;;;;;;4999727;28;20500;-84
2021/10/06 12:24:59;;;;;;;1.43;1.33;;;15.40;95.90;;;;;;4994119;28;20476;-83
2021/10/06 12:27:28;;;;;;;1.80;1.00;;;14.10;99.00;;;;;;4996757;28;20466;-84
2021/10/06 12:30:24;;;;;;;1.23;0.80;;;13.10;99.90;;;;;;4991667;28;20455;-84
2021/10/06 12:32:58;;;;;;;1.47;1.13;;;12.70;99.90;;;;;;4960468;28;20494;-83
2021/10/06 12:35:26;;;;;;;1.57;0.87;;;13.20;99.90;;;;;;5003049;28;21224;-84
2021/10/06 12:37:56;;;;;;;1.27;0.70;;;14.10;99.90;;;;;;4992248;28;20452;-84
2021/10/06 12:40:39;;;;;;;0.70;0.70;;;14.90;99.90;;;;;;4983725;28;20448;-84
2021/10/06 12:43:08;;;;;;;1.67;1.00;;;15.80;99.90;;;;;;4996501;28;20459;-85
2021/10/06 12:45:35;;;;;;;1.23;0.73;;;16.70;99.90;;;;;;5002894;28;20475;-84
2021/10/06 12:48:02;;;;;;;1.00;0.60;;;17.50;99.90;;;;;;4986446;28;20469;-85
2021/10/06 12:50:29;;;;;;;2.30;1.13;;;18.30;97.40;;;;;;4992538;28;20457;-85
2021/10/06 12:53:07;;;;;;;1.67;1.03;;;18.90;96.70;;;;;;4989678;28;20462;-86
2021/10/06 12:55:34;;;;;;;0.70;0.70;;;19.60;93.90;;;;;;4999098;28;20497;-85
2021/10/06 12:58:08;;;;;;;0.90;0.70;;;19.90;91.60;;;;;;4997678;28;20467;-84